sensor_id;sensor_type;location;lat;lon;timestamp;temperature;humidity
44894;DHT22;30625;52.206;21.030;2023-04-16T00:01:21;8.60;99.90
44894;DHT22;30625;52.206;21.030;2023-04-16T00:03:47;8.60;99.90
44894;DHT22;30625;52.206;21.030;2023-04-16T00:06:13;9.90;99.90
44894;DHT22;30625;52.206;21.030;2023-04-16T00:08:38;8.60;99.90
44894;DHT22;30625;52.206;21.030;2023-04-16T00:11:05;8.60;99.90
44894;DHT22;30625;52.206;21.030;2023-04-16T00:13:31;8.60;99.90
44894;DHT22;30625;52.206;21.030;2023-04-16T00:15:57;8.50;99.90
44894;DHT22;30625;52.206;21.030;2023-04-16T00:18:23;8.60;99.90
44894;DHT22;30625;52.206;21.030;2023-04-16T00:20:49;8.60;99.90
44894;DHT22;30625;52.206;21.030;2023-04-16T00:23:15;9.50;99.90
44894;DHT22;30625;52.206;21.030;2023-04-16T00:25:41;8.70;99.90
44894;DHT22;30625;52.206;21.030;2023-04-16T00:28:07;8.60;99.90
44894;DHT22;30625;52.206;21.030;2023-04-16T00:30:33;8.60;99.90
44894;DHT22;30625;52.206;21.030;2023-04-16T00:32:59;8.60;99.90
44894;DHT22;30625;52.206;21.030;2023-04-16T00:35:25;8.50;99.90
44894;DHT22;30625;52.206;21.030;2023-04-16T00:37:51;8.50;99.90
44894;DHT22;30625;52.206;21.030;2023-04-16T00:40:16;8.60;99.90
44894;DHT22;30625;52.206;21.030;2023-04-16T00:42:42;8.70;99.90
44894;DHT22;30625;52.206;21.030;2023-04-16T00:45:08;8.70;99.90
44894;DHT22;30625;52.206;21.030;2023-04-16T00:47:34;8.70;99.90
44894;DHT22;30625;52.206;21.030;2023-04-16T00:50:04;8.70;99.90
44894;DHT22;30625;52.206;21.030;2023-04-16T00:52:33;8.70;99.90
44894;DHT22;30625;52.206;21.030;2023-04-16T00:54:59;8.70;99.90
44894;DHT22;30625;52.206;21.030;2023-04-16T00:57:25;8.70;99.90
44894;DHT22;30625;52.206;21.030;2023-04-16T00:59:51;8.70;99.90
44894;DHT22;30625;52.206;21.030;2023-04-16T01:02:17;8.80;99.90
44894;DHT22;30625;52.206;21.030;2023-04-16T01:04:43;8.70;99.90
44894;DHT22;30625;52.206;21.030;2023-04-16T01:07:08;8.60;99.90
44894;DHT22;30625;52.206;21.030;2023-04-16T01:09:34;8.70;99.90
44894;DHT22;30625;52.206;21.030;2023-04-16T01:11:59;9.40;99.90
44894;DHT22;30625;52.206;21.030;2023-04-16T01:14:26;8.60;99.90
44894;DHT22;30625;52.206;21.030;2023-04-16T01:16:52;8.60;99.90
44894;DHT22;30625;52.206;21.030;2023-04-16T01:19:17;8.90;99.90
44894;DHT22;30625;52.206;21.030;2023-04-16T01:21:43;9.50;99.90
44894;DHT22;30625;52.206;21.030;2023-04-16T01:24:08;8.70;99.90
44894;DHT22;30625;52.206;21.030;2023-04-16T01:26:34;8.70;99.90
44894;DHT22;30625;52.206;21.030;2023-04-16T01:29:01;8.70;99.90
44894;DHT22;30625;52.206;21.030;2023-04-16T01:31:27;9.80;99.90
44894;DHT22;30625;52.206;21.030;2023-04-16T01:33:52;8.80;99.90
44894;DHT22;30625;52.206;21.030;2023-04-16T01:36:18;8.90;99.90
44894;DHT22;30625;52.206;21.030;2023-04-16T01:38:43;8.80;99.90
44894;DHT22;30625;52.206;21.030;2023-04-16T01:41:09;10.20;99.90
44894;DHT22;30625;52.206;21.030;2023-04-16T01:43:35;8.60;99.90
44894;DHT22;30625;52.206;21.030;2023-04-16T01:46:39;8.60;99.90
44894;DHT22;30625;52.206;21.030;2023-04-16T01:49:05;8.70;99.90
44894;DHT22;30625;52.206;21.030;2023-04-16T01:51:31;8.70;99.90
44894;DHT22;30625;52.206;21.030;2023-04-16T01:53:57;8.70;99.90
44894;DHT22;30625;52.206;21.030;2023-04-16T01:56:23;8.70;99.90
44894;DHT22;30625;52.206;21.030;2023-04-16T01:58:49;8.70;99.90
44894;DHT22;30625;52.206;21.030;2023-04-16T02:01:15;8.70;99.90
44894;DHT22;30625;52.206;21.030;2023-04-16T02:03:40;8.70;99.90
44894;DHT22;30625;52.206;21.030;2023-04-16T02:06:06;8.70;99.90
44894;DHT22;30625;52.206;21.030;2023-04-16T02:08:32;8.70;99.90
44894;DHT22;30625;52.206;21.030;2023-04-16T02:10:58;8.70;99.90
44894;DHT22;30625;52.206;21.030;2023-04-16T02:13:24;8.60;99.90
44894;DHT22;30625;52.206;21.030;2023-04-16T02:15:50;8.60;99.90
44894;DHT22;30625;52.206;21.030;2023-04-16T02:18:16;9.20;99.90
44894;DHT22;30625;52.206;21.030;2023-04-16T02:20:43;8.50;99.90
44894;DHT22;30625;52.206;21.030;2023-04-16T02:23:09;8.50;99.90
44894;DHT22;30625;52.206;21.030;2023-04-16T02:25:40;8.60;99.90
44894;DHT22;30625;52.206;21.030;2023-04-16T02:28:09;8.60;99.90
44894;DHT22;30625;52.206;21.030;2023-04-16T02:30:35;8.50;99.90
44894;DHT22;30625;52.206;21.030;2023-04-16T02:33:01;8.60;99.90
44894;DHT22;30625;52.206;21.030;2023-04-16T02:35:30;8.50;99.90
44894;DHT22;30625;52.206;21.030;2023-04-16T02:37:56;8.40;99.90
44894;DHT22;30625;52.206;21.030;2023-04-16T02:40:22;8.40;99.90
44894;DHT22;30625;52.206;21.030;2023-04-16T02:42:48;8.30;99.90
44894;DHT22;30625;52.206;21.030;2023-04-16T02:45:13;8.30;99.90
44894;DHT22;30625;52.206;21.030;2023-04-16T02:47:39;8.30;99.90
44894;DHT22;30625;52.206;21.030;2023-04-16T02:50:05;8.20;99.90
44894;DHT22;30625;52.206;21.030;2023-04-16T02:52:31;8.30;99.90
44894;DHT22;30625;52.206;21.030;2023-04-16T02:54:58;8.30;99.90
44894;DHT22;30625;52.206;21.030;2023-04-16T02:57:23;8.30;99.90
44894;DHT22;30625;52.206;21.030;2023-04-16T02:59:49;8.20;99.90
44894;DHT22;30625;52.206;21.030;2023-04-16T03:02:15;8.20;99.90
44894;DHT22;30625;52.206;21.030;2023-04-16T03:04:41;8.20;99.90
44894;DHT22;30625;52.206;21.030;2023-04-16T03:07:07;8.20;99.90
44894;DHT22;30625;52.206;21.030;2023-04-16T03:09:34;8.30;99.90
44894;DHT22;30625;52.206;21.030;2023-04-16T03:12:00;8.30;99.90
44894;DHT22;30625;52.206;21.030;2023-04-16T03:14:26;8.80;99.90
44894;DHT22;30625;52.206;21.030;2023-04-16T03:16:52;8.30;99.90
44894;DHT22;30625;52.206;21.030;2023-04-16T03:19:18;8.30;99.90
44894;DHT22;30625;52.206;21.030;2023-04-16T03:21:43;8.30;99.90
44894;DHT22;30625;52.206;21.030;2023-04-16T03:24:09;8.90;99.90
44894;DHT22;30625;52.206;21.030;2023-04-16T03:26:35;8.30;99.90
44894;DHT22;30625;52.206;21.030;2023-04-16T03:29:01;8.30;99.90
44894;DHT22;30625;52.206;21.030;2023-04-16T03:31:27;8.30;99.90
44894;DHT22;30625;52.206;21.030;2023-04-16T03:33:52;8.30;99.90
44894;DHT22;30625;52.206;21.030;2023-04-16T03:36:18;8.20;99.90
44894;DHT22;30625;52.206;21.030;2023-04-16T03:38:44;8.30;99.90
44894;DHT22;30625;52.206;21.030;2023-04-16T03:41:09;8.10;99.90
44894;DHT22;30625;52.206;21.030;2023-04-16T03:43:35;8.30;99.90
44894;DHT22;30625;52.206;21.030;2023-04-16T03:46:01;8.30;99.90
44894;DHT22;30625;52.206;21.030;2023-04-16T03:48:27;8.20;99.90
44894;DHT22;30625;52.206;21.030;2023-04-16T03:50:52;8.20;99.90
44894;DHT22;30625;52.206;21.030;2023-04-16T03:53:18;8.60;99.90
44894;DHT22;30625;52.206;21.030;2023-04-16T03:55:44;8.20;99.90
44894;DHT22;30625;52.206;21.030;2023-04-16T03:58:10;8.30;99.90
44894;DHT22;30625;52.206;21.030;2023-04-16T04:00:35;8.30;99.90
44894;DHT22;30625;52.206;21.030;2023-04-16T04:03:01;8.30;99.90
44894;DHT22;30625;52.206;21.030;2023-04-16T04:05:26;8.50;99.90
44894;DHT22;30625;52.206;21.030;2023-04-16T04:07:52;8.30;99.90
44894;DHT22;30625;52.206;21.030;2023-04-16T04:10:18;8.30;99.90
44894;DHT22;30625;52.206;21.030;2023-04-16T04:12:43;8.20;99.90
44894;DHT22;30625;52.206;21.030;2023-04-16T04:15:10;8.30;99.90
44894;DHT22;30625;52.206;21.030;2023-04-16T04:17:35;8.20;99.90
44894;DHT22;30625;52.206;21.030;2023-04-16T04:20:01;8.30;99.90
44894;DHT22;30625;52.206;21.030;2023-04-16T04:22:27;8.30;99.90
44894;DHT22;30625;52.206;21.030;2023-04-16T04:24:53;8.30;99.90
44894;DHT22;30625;52.206;21.030;2023-04-16T04:27:18;8.30;99.90
44894;DHT22;30625;52.206;21.030;2023-04-16T04:29:44;8.30;99.90
44894;DHT22;30625;52.206;21.030;2023-04-16T04:32:10;8.40;99.90
44894;DHT22;30625;52.206;21.030;2023-04-16T04:34:35;8.30;99.90
44894;DHT22;30625;52.206;21.030;2023-04-16T04:37:01;8.40;99.90
44894;DHT22;30625;52.206;21.030;2023-04-16T04:39:26;8.30;99.90
44894;DHT22;30625;52.206;21.030;2023-04-16T04:41:52;8.40;99.90
44894;DHT22;30625;52.206;21.030;2023-04-16T04:44:18;8.50;99.90
44894;DHT22;30625;52.206;21.030;2023-04-16T04:46:43;8.50;99.90
44894;DHT22;30625;52.206;21.030;2023-04-16T04:49:09;8.70;99.90
44894;DHT22;30625;52.206;21.030;2023-04-16T04:51:35;8.70;99.90
44894;DHT22;30625;52.206;21.030;2023-04-16T04:54:00;8.80;99.90
44894;DHT22;30625;52.206;21.030;2023-04-16T04:56:26;8.80;99.90
44894;DHT22;30625;52.206;21.030;2023-04-16T04:58:51;8.70;99.90
44894;DHT22;30625;52.206;21.030;2023-04-16T05:01:17;8.70;99.90
44894;DHT22;30625;52.206;21.030;2023-04-16T05:03:43;8.80;99.90
44894;DHT22;30625;52.206;21.030;2023-04-16T05:06:09;8.60;99.90
44894;DHT22;30625;52.206;21.030;2023-04-16T05:08:34;8.60;99.90
44894;DHT22;30625;52.206;21.030;2023-04-16T05:11:00;8.80;99.90
44894;DHT22;30625;52.206;21.030;2023-04-16T05:13:26;10.00;99.90
44894;DHT22;30625;52.206;21.030;2023-04-16T05:15:52;8.60;99.90
44894;DHT22;30625;52.206;21.030;2023-04-16T05:18:17;8.60;99.90
44894;DHT22;30625;52.206;21.030;2023-04-16T05:20:43;8.60;99.90
44894;DHT22;30625;52.206;21.030;2023-04-16T05:23:08;8.70;99.90
44894;DHT22;30625;52.206;21.030;2023-04-16T05:25:34;8.80;99.90
44894;DHT22;30625;52.206;21.030;2023-04-16T05:28:04;8.80;99.90
44894;DHT22;30625;52.206;21.030;2023-04-16T05:30:30;8.80;99.90
44894;DHT22;30625;52.206;21.030;2023-04-16T05:32:55;8.70;99.90
44894;DHT22;30625;52.206;21.030;2023-04-16T05:35:21;8.80;99.90
44894;DHT22;30625;52.206;21.030;2023-04-16T05:37:46;8.70;99.90
44894;DHT22;30625;52.206;21.030;2023-04-16T05:40:12;8.80;99.90
44894;DHT22;30625;52.206;21.030;2023-04-16T05:42:38;8.80;99.90
44894;DHT22;30625;52.206;21.030;2023-04-16T05:45:04;9.40;99.90
44894;DHT22;30625;52.206;21.030;2023-04-16T05:47:30;8.80;99.90
44894;DHT22;30625;52.206;21.030;2023-04-16T05:49:56;8.80;99.90
44894;DHT22;30625;52.206;21.030;2023-04-16T05:52:21;10.10;99.90
44894;DHT22;30625;52.206;21.030;2023-04-16T05:54:47;9.90;99.90
44894;DHT22;30625;52.206;21.030;2023-04-16T05:57:13;8.90;99.90
44894;DHT22;30625;52.206;21.030;2023-04-16T05:59:38;9.00;99.90
44894;DHT22;30625;52.206;21.030;2023-04-16T06:02:05;9.10;99.90
44894;DHT22;30625;52.206;21.030;2023-04-16T06:04:31;10.50;99.90
44894;DHT22;30625;52.206;21.030;2023-04-16T06:06:57;9.10;99.90
44894;DHT22;30625;52.206;21.030;2023-04-16T06:09:22;9.10;99.90
44894;DHT22;30625;52.206;21.030;2023-04-16T06:11:48;9.10;99.90
44894;DHT22;30625;52.206;21.030;2023-04-16T06:14:14;9.20;99.90
44894;DHT22;30625;52.206;21.030;2023-04-16T06:16:40;9.20;99.90
44894;DHT22;30625;52.206;21.030;2023-04-16T06:19:05;9.30;99.90
44894;DHT22;30625;52.206;21.030;2023-04-16T06:21:31;9.40;99.90
44894;DHT22;30625;52.206;21.030;2023-04-16T06:23:57;9.30;99.90
44894;DHT22;30625;52.206;21.030;2023-04-16T06:26:23;9.20;99.90
44894;DHT22;30625;52.206;21.030;2023-04-16T06:28:49;9.20;99.90
44894;DHT22;30625;52.206;21.030;2023-04-16T06:31:15;9.30;99.90
44894;DHT22;30625;52.206;21.030;2023-04-16T06:33:40;9.30;99.90
44894;DHT22;30625;52.206;21.030;2023-04-16T06:36:06;9.30;99.90
44894;DHT22;30625;52.206;21.030;2023-04-16T06:38:32;9.30;99.90
44894;DHT22;30625;52.206;21.030;2023-04-16T06:40:58;10.40;99.90
44894;DHT22;30625;52.206;21.030;2023-04-16T06:43:24;9.40;99.90
44894;DHT22;30625;52.206;21.030;2023-04-16T06:45:49;9.30;99.90
44894;DHT22;30625;52.206;21.030;2023-04-16T06:48:15;9.40;99.90
44894;DHT22;30625;52.206;21.030;2023-04-16T06:50:41;10.10;99.90
44894;DHT22;30625;52.206;21.030;2023-04-16T06:53:07;9.60;99.90
44894;DHT22;30625;52.206;21.030;2023-04-16T06:55:32;9.50;99.90
44894;DHT22;30625;52.206;21.030;2023-04-16T06:57:58;9.90;99.90
44894;DHT22;30625;52.206;21.030;2023-04-16T07:00:24;9.60;99.90
44894;DHT22;30625;52.206;21.030;2023-04-16T07:02:49;9.60;99.90
44894;DHT22;30625;52.206;21.030;2023-04-16T07:05:15;11.30;99.90
44894;DHT22;30625;52.206;21.030;2023-04-16T07:07:41;9.90;99.90
44894;DHT22;30625;52.206;21.030;2023-04-16T07:10:07;9.80;99.90
44894;DHT22;30625;52.206;21.030;2023-04-16T07:12:32;9.90;99.90
44894;DHT22;30625;52.206;21.030;2023-04-16T07:14:58;11.50;99.90
44894;DHT22;30625;52.206;21.030;2023-04-16T07:17:24;9.80;99.90
44894;DHT22;30625;52.206;21.030;2023-04-16T07:19:50;9.80;99.90
44894;DHT22;30625;52.206;21.030;2023-04-16T07:22:16;9.90;99.90
44894;DHT22;30625;52.206;21.030;2023-04-16T07:24:41;9.90;99.90
44894;DHT22;30625;52.206;21.030;2023-04-16T07:27:07;9.90;99.90
44894;DHT22;30625;52.206;21.030;2023-04-16T07:29:33;10.00;99.90
44894;DHT22;30625;52.206;21.030;2023-04-16T07:31:58;9.90;99.90
44894;DHT22;30625;52.206;21.030;2023-04-16T07:34:24;9.90;99.90
44894;DHT22;30625;52.206;21.030;2023-04-16T07:36:50;9.90;99.90
44894;DHT22;30625;52.206;21.030;2023-04-16T07:39:15;9.80;99.90
44894;DHT22;30625;52.206;21.030;2023-04-16T07:41:42;9.80;99.90
44894;DHT22;30625;52.206;21.030;2023-04-16T07:44:08;9.80;99.90
44894;DHT22;30625;52.206;21.030;2023-04-16T07:46:33;10.00;99.90
44894;DHT22;30625;52.206;21.030;2023-04-16T07:48:59;9.90;99.90
44894;DHT22;30625;52.206;21.030;2023-04-16T07:51:25;9.80;99.90
44894;DHT22;30625;52.206;21.030;2023-04-16T07:53:51;9.90;99.90
44894;DHT22;30625;52.206;21.030;2023-04-16T07:56:16;9.90;99.90
44894;DHT22;30625;52.206;21.030;2023-04-16T07:58:42;10.00;99.90
44894;DHT22;30625;52.206;21.030;2023-04-16T08:01:08;9.90;99.90
44894;DHT22;30625;52.206;21.030;2023-04-16T08:03:33;9.90;99.90
44894;DHT22;30625;52.206;21.030;2023-04-16T08:05:59;10.00;99.90
44894;DHT22;30625;52.206;21.030;2023-04-16T08:08:24;10.00;99.90
44894;DHT22;30625;52.206;21.030;2023-04-16T08:10:50;10.00;99.90
44894;DHT22;30625;52.206;21.030;2023-04-16T08:13:23;10.10;99.90
44894;DHT22;30625;52.206;21.030;2023-04-16T08:15:48;10.00;99.90
44894;DHT22;30625;52.206;21.030;2023-04-16T08:18:14;10.10;99.90
44894;DHT22;30625;52.206;21.030;2023-04-16T08:20:40;10.90;99.90
44894;DHT22;30625;52.206;21.030;2023-04-16T08:23:06;10.30;99.90
44894;DHT22;30625;52.206;21.030;2023-04-16T08:25:31;10.80;99.90
44894;DHT22;30625;52.206;21.030;2023-04-16T08:27:57;10.40;99.90
44894;DHT22;30625;52.206;21.030;2023-04-16T08:30:23;10.40;99.90
44894;DHT22;30625;52.206;21.030;2023-04-16T08:32:49;10.50;99.90
44894;DHT22;30625;52.206;21.030;2023-04-16T08:35:14;11.70;99.90
44894;DHT22;30625;52.206;21.030;2023-04-16T08:37:40;10.70;99.90
44894;DHT22;30625;52.206;21.030;2023-04-16T08:40:06;10.80;99.90
44894;DHT22;30625;52.206;21.030;2023-04-16T08:42:39;11.00;99.90
44894;DHT22;30625;52.206;21.030;2023-04-16T08:45:12;11.10;99.90
44894;DHT22;30625;52.206;21.030;2023-04-16T08:47:40;11.20;99.90
44894;DHT22;30625;52.206;21.030;2023-04-16T08:50:10;11.20;99.90
44894;DHT22;30625;52.206;21.030;2023-04-16T08:53:13;11.20;99.90
44894;DHT22;30625;52.206;21.030;2023-04-16T08:58:13;11.30;99.90
44894;DHT22;30625;52.206;21.030;2023-04-16T09:00:39;11.40;99.90
44894;DHT22;30625;52.206;21.030;2023-04-16T09:03:08;13.00;99.90
44894;DHT22;30625;52.206;21.030;2023-04-16T09:05:35;11.40;99.90
44894;DHT22;30625;52.206;21.030;2023-04-16T09:08:01;11.40;99.90
44894;DHT22;30625;52.206;21.030;2023-04-16T09:10:27;11.70;99.90
44894;DHT22;30625;52.206;21.030;2023-04-16T09:12:56;11.40;99.90
44894;DHT22;30625;52.206;21.030;2023-04-16T09:15:23;11.50;99.90
44894;DHT22;30625;52.206;21.030;2023-04-16T09:17:50;11.60;99.90
44894;DHT22;30625;52.206;21.030;2023-04-16T09:20:17;11.50;99.90
44894;DHT22;30625;52.206;21.030;2023-04-16T09:22:43;11.60;99.90
44894;DHT22;30625;52.206;21.030;2023-04-16T09:25:10;11.70;99.90
44894;DHT22;30625;52.206;21.030;2023-04-16T09:27:36;11.70;99.90
44894;DHT22;30625;52.206;21.030;2023-04-16T09:30:18;11.70;99.90
44894;DHT22;30625;52.206;21.030;2023-04-16T09:32:46;11.90;99.90
44894;DHT22;30625;52.206;21.030;2023-04-16T09:35:12;12.00;99.90
44894;DHT22;30625;52.206;21.030;2023-04-16T09:37:39;12.00;99.90
44894;DHT22;30625;52.206;21.030;2023-04-16T09:40:07;12.10;99.90
44894;DHT22;30625;52.206;21.030;2023-04-16T09:42:35;12.10;99.90
44894;DHT22;30625;52.206;21.030;2023-04-16T09:45:04;12.10;99.90
44894;DHT22;30625;52.206;21.030;2023-04-16T09:47:41;11.90;99.90
44894;DHT22;30625;52.206;21.030;2023-04-16T09:50:07;11.90;99.90
44894;DHT22;30625;52.206;21.030;2023-04-16T09:52:36;12.00;99.90
44894;DHT22;30625;52.206;21.030;2023-04-16T09:55:03;12.20;99.90
44894;DHT22;30625;52.206;21.030;2023-04-16T09:57:29;12.10;99.90
44894;DHT22;30625;52.206;21.030;2023-04-16T10:00:01;12.20;99.90
44894;DHT22;30625;52.206;21.030;2023-04-16T10:02:28;12.30;99.90
44894;DHT22;30625;52.206;21.030;2023-04-16T10:04:55;13.20;99.90
44894;DHT22;30625;52.206;21.030;2023-04-16T10:07:22;12.20;99.90
44894;DHT22;30625;52.206;21.030;2023-04-16T10:09:52;12.20;99.90
44894;DHT22;30625;52.206;21.030;2023-04-16T10:12:18;12.30;99.90
44894;DHT22;30625;52.206;21.030;2023-04-16T10:14:45;12.40;99.90
44894;DHT22;30625;52.206;21.030;2023-04-16T10:17:11;12.50;99.90
44894;DHT22;30625;52.206;21.030;2023-04-16T10:19:37;12.60;99.90
44894;DHT22;30625;52.206;21.030;2023-04-16T10:22:03;12.50;99.90
44894;DHT22;30625;52.206;21.030;2023-04-16T10:24:30;12.40;99.90
44894;DHT22;30625;52.206;21.030;2023-04-16T10:26:57;12.50;99.90
44894;DHT22;30625;52.206;21.030;2023-04-16T10:29:24;12.40;99.90
44894;DHT22;30625;52.206;21.030;2023-04-16T10:31:51;12.50;99.90
44894;DHT22;30625;52.206;21.030;2023-04-16T10:34:18;12.40;99.90
44894;DHT22;30625;52.206;21.030;2023-04-16T10:36:48;12.50;99.90
44894;DHT22;30625;52.206;21.030;2023-04-16T10:39:22;12.50;99.90
44894;DHT22;30625;52.206;21.030;2023-04-16T10:41:48;12.50;99.90
44894;DHT22;30625;52.206;21.030;2023-04-16T10:44:17;12.50;99.90
44894;DHT22;30625;52.206;21.030;2023-04-16T10:46:45;12.60;99.90
44894;DHT22;30625;52.206;21.030;2023-04-16T10:51:57;12.50;99.90
44894;DHT22;30625;52.206;21.030;2023-04-16T10:54:30;12.40;99.90
44894;DHT22;30625;52.206;21.030;2023-04-16T10:57:02;12.50;99.90
44894;DHT22;30625;52.206;21.030;2023-04-16T10:59:33;12.60;99.90
44894;DHT22;30625;52.206;21.030;2023-04-16T11:02:01;12.60;99.90
44894;DHT22;30625;52.206;21.030;2023-04-16T11:04:37;12.70;99.90
44894;DHT22;30625;52.206;21.030;2023-04-16T11:10:02;12.80;99.90
44894;DHT22;30625;52.206;21.030;2023-04-16T11:15:00;12.90;99.90
44894;DHT22;30625;52.206;21.030;2023-04-16T11:17:32;12.90;99.90
44894;DHT22;30625;52.206;21.030;2023-04-16T11:20:00;12.80;99.90
44894;DHT22;30625;52.206;21.030;2023-04-16T11:22:26;12.90;99.90
44894;DHT22;30625;52.206;21.030;2023-04-16T11:24:56;12.70;99.90
44894;DHT22;30625;52.206;21.030;2023-04-16T11:27:25;12.70;99.90
44894;DHT22;30625;52.206;21.030;2023-04-16T11:30:02;13.50;99.90
44894;DHT22;30625;52.206;21.030;2023-04-16T11:32:33;13.00;99.90
44894;DHT22;30625;52.206;21.030;2023-04-16T11:37:38;13.20;99.90
44894;DHT22;30625;52.206;21.030;2023-04-16T11:40:04;13.50;99.90
44894;DHT22;30625;52.206;21.030;2023-04-16T11:42:31;13.60;99.90
44894;DHT22;30625;52.206;21.030;2023-04-16T11:44:58;13.80;99.90
44894;DHT22;30625;52.206;21.030;2023-04-16T11:47:28;14.00;99.90
44894;DHT22;30625;52.206;21.030;2023-04-16T11:49:55;14.00;99.90
44894;DHT22;30625;52.206;21.030;2023-04-16T11:52:28;14.60;99.90
44894;DHT22;30625;52.206;21.030;2023-04-16T11:54:54;14.90;99.90
44894;DHT22;30625;52.206;21.030;2023-04-16T11:57:27;15.40;99.90
44894;DHT22;30625;52.206;21.030;2023-04-16T11:59:53;15.80;99.90
44894;DHT22;30625;52.206;21.030;2023-04-16T12:05:38;16.40;99.70
44894;DHT22;30625;52.206;21.030;2023-04-16T12:08:06;16.50;98.70
44894;DHT22;30625;52.206;21.030;2023-04-16T12:10:34;16.90;98.20
44894;DHT22;30625;52.206;21.030;2023-04-16T12:13:14;17.00;98.40
44894;DHT22;30625;52.206;21.030;2023-04-16T12:15:50;17.30;97.70
44894;DHT22;30625;52.206;21.030;2023-04-16T12:18:17;17.90;97.30
44894;DHT22;30625;52.206;21.030;2023-04-16T12:20:45;18.00;95.40
44894;DHT22;30625;52.206;21.030;2023-04-16T12:23:25;18.10;94.90
44894;DHT22;30625;52.206;21.030;2023-04-16T12:25:51;18.00;95.40
44894;DHT22;30625;52.206;21.030;2023-04-16T12:30:53;17.70;95.10
44894;DHT22;30625;52.206;21.030;2023-04-16T12:33:18;17.50;94.40
44894;DHT22;30625;52.206;21.030;2023-04-16T12:35:45;17.50;93.60
44894;DHT22;30625;52.206;21.030;2023-04-16T12:38:11;17.30;94.30
44894;DHT22;30625;52.206;21.030;2023-04-16T12:40:38;17.00;94.60
44894;DHT22;30625;52.206;21.030;2023-04-16T12:43:04;16.80;95.10
44894;DHT22;30625;52.206;21.030;2023-04-16T12:45:29;16.70;95.20
44894;DHT22;30625;52.206;21.030;2023-04-16T12:47:55;16.60;96.40
44894;DHT22;30625;52.206;21.030;2023-04-16T12:50:21;16.40;96.20
44894;DHT22;30625;52.206;21.030;2023-04-16T12:52:47;16.30;95.50
44894;DHT22;30625;52.206;21.030;2023-04-16T12:55:13;16.40;95.60
44894;DHT22;30625;52.206;21.030;2023-04-16T12:57:39;16.10;96.20
44894;DHT22;30625;52.206;21.030;2023-04-16T13:00:05;15.90;96.70
44894;DHT22;30625;52.206;21.030;2023-04-16T13:02:32;16.10;97.20
44894;DHT22;30625;52.206;21.030;2023-04-16T13:04:58;16.50;95.00
44894;DHT22;30625;52.206;21.030;2023-04-16T13:07:24;16.90;94.20
44894;DHT22;30625;52.206;21.030;2023-04-16T13:09:51;17.10;93.70
44894;DHT22;30625;52.206;21.030;2023-04-16T13:12:17;18.00;94.20
44894;DHT22;30625;52.206;21.030;2023-04-16T13:14:43;18.20;95.00
44894;DHT22;30625;52.206;21.030;2023-04-16T13:17:08;18.30;91.90
44894;DHT22;30625;52.206;21.030;2023-04-16T13:19:34;18.10;93.00
44894;DHT22;30625;52.206;21.030;2023-04-16T13:22:00;18.40;93.80
44894;DHT22;30625;52.206;21.030;2023-04-16T13:24:26;18.60;93.20
44894;DHT22;30625;52.206;21.030;2023-04-16T13:26:52;18.80;93.20
44894;DHT22;30625;52.206;21.030;2023-04-16T13:29:18;19.00;91.70
44894;DHT22;30625;52.206;21.030;2023-04-16T13:31:44;19.10;91.70
44894;DHT22;30625;52.206;21.030;2023-04-16T13:34:09;18.90;91.60
44894;DHT22;30625;52.206;21.030;2023-04-16T13:36:35;18.90;91.80
44894;DHT22;30625;52.206;21.030;2023-04-16T13:39:01;19.00;91.30
44894;DHT22;30625;52.206;21.030;2023-04-16T13:41:30;18.80;90.70
44894;DHT22;30625;52.206;21.030;2023-04-16T13:43:56;18.50;91.80
44894;DHT22;30625;52.206;21.030;2023-04-16T13:46:22;18.20;92.40
44894;DHT22;30625;52.206;21.030;2023-04-16T13:48:47;17.80;92.60
44894;DHT22;30625;52.206;21.030;2023-04-16T13:51:13;17.40;92.80
44894;DHT22;30625;52.206;21.030;2023-04-16T13:53:40;17.20;93.50
44894;DHT22;30625;52.206;21.030;2023-04-16T13:56:05;17.70;93.60
44894;DHT22;30625;52.206;21.030;2023-04-16T13:58:32;16.70;94.00
44894;DHT22;30625;52.206;21.030;2023-04-16T14:00:58;16.60;94.80
44894;DHT22;30625;52.206;21.030;2023-04-16T14:03:24;16.50;95.10
44894;DHT22;30625;52.206;21.030;2023-04-16T14:05:53;16.50;95.50
44894;DHT22;30625;52.206;21.030;2023-04-16T14:08:19;16.30;94.80
44894;DHT22;30625;52.206;21.030;2023-04-16T14:10:46;16.10;94.20
44894;DHT22;30625;52.206;21.030;2023-04-16T14:13:12;15.90;95.40
44894;DHT22;30625;52.206;21.030;2023-04-16T14:15:37;15.90;95.40
44894;DHT22;30625;52.206;21.030;2023-04-16T14:18:03;15.70;95.80
44894;DHT22;30625;52.206;21.030;2023-04-16T14:20:29;15.70;96.10
44894;DHT22;30625;52.206;21.030;2023-04-16T14:22:55;15.60;96.70
44894;DHT22;30625;52.206;21.030;2023-04-16T14:25:21;15.60;96.20
44894;DHT22;30625;52.206;21.030;2023-04-16T14:27:47;15.60;96.80
44894;DHT22;30625;52.206;21.030;2023-04-16T14:30:13;15.50;96.90
44894;DHT22;30625;52.206;21.030;2023-04-16T14:32:39;15.60;96.90
44894;DHT22;30625;52.206;21.030;2023-04-16T14:35:05;15.50;96.70
44894;DHT22;30625;52.206;21.030;2023-04-16T14:37:31;15.30;96.90
44894;DHT22;30625;52.206;21.030;2023-04-16T14:40:00;15.20;96.90
44894;DHT22;30625;52.206;21.030;2023-04-16T14:42:26;15.00;96.50
44894;DHT22;30625;52.206;21.030;2023-04-16T14:44:52;15.00;96.70
44894;DHT22;30625;52.206;21.030;2023-04-16T14:47:18;15.00;97.20
44894;DHT22;30625;52.206;21.030;2023-04-16T14:49:47;14.90;97.70
44894;DHT22;30625;52.206;21.030;2023-04-16T14:52:12;14.90;97.60
44894;DHT22;30625;52.206;21.030;2023-04-16T14:54:38;14.80;98.30
44894;DHT22;30625;52.206;21.030;2023-04-16T14:57:04;14.80;98.90
44894;DHT22;30625;52.206;21.030;2023-04-16T14:59:30;15.20;99.30
44894;DHT22;30625;52.206;21.030;2023-04-16T15:01:57;14.90;99.90
44894;DHT22;30625;52.206;21.030;2023-04-16T15:04:23;14.80;99.40
44894;DHT22;30625;52.206;21.030;2023-04-16T15:06:50;14.90;99.60
44894;DHT22;30625;52.206;21.030;2023-04-16T15:09:15;14.90;99.90
44894;DHT22;30625;52.206;21.030;2023-04-16T15:11:41;13.70;99.20
44894;DHT22;30625;52.206;21.030;2023-04-16T15:14:07;14.90;99.70
44894;DHT22;30625;52.206;21.030;2023-04-16T15:16:35;14.90;99.90
44894;DHT22;30625;52.206;21.030;2023-04-16T15:19:01;14.90;99.50
44894;DHT22;30625;52.206;21.030;2023-04-16T15:21:27;15.40;99.60
44894;DHT22;30625;52.206;21.030;2023-04-16T15:23:52;14.80;99.50
44894;DHT22;30625;52.206;21.030;2023-04-16T15:26:18;14.80;99.70
44894;DHT22;30625;52.206;21.030;2023-04-16T15:28:44;14.80;99.70
44894;DHT22;30625;52.206;21.030;2023-04-16T15:31:10;14.80;99.80
44894;DHT22;30625;52.206;21.030;2023-04-16T15:33:36;14.80;99.70
44894;DHT22;30625;52.206;21.030;2023-04-16T15:36:01;14.70;99.30
44894;DHT22;30625;52.206;21.030;2023-04-16T15:38:28;14.70;99.90